Time;durP1;ratioP1;P1;durP2;ratioP2;P2;SDS_P1;SDS_P2;PMS_P1;PMS_P2;Temp;Humidity;BMP_temperature;BMP_pressure;BME280_temperature;BME280_humidity;BME280_pressure;Samples;Min_cycle;Max_cycle;Signal;HPM_P1;HPM_P2
2022/10/08 00:01:17;;;;;;;34.80;6.67;;;;;;;19.59;nan;101275.13;6218788;23;20408;-87
2022/10/08 00:03:47;;;;;;;34.13;7.70;;;;;;;19.56;nan;101270.06;6194675;23;20403;-87
2022/10/08 00:06:22;;;;;;;38.47;6.90;;;;;;;19.55;nan;101276.69;6194468;23;20541;-87
2022/10/08 00:08:52;;;;;;;36.93;6.30;;;;;;;19.53;nan;101276.09;6220552;23;20410;-87
2022/10/08 00:11:21;;;;;;;39.00;7.13;;;;;;;19.51;nan;101262.47;6219393;23;20404;-86
2022/10/08 00:13:51;;;;;;;36.07;5.90;;;;;;;19.53;nan;101265.00;6219645;23;20723;-87
2022/10/08 00:16:32;;;;;;;36.60;6.90;;;;;;;19.50;nan;101251.59;6070958;23;20843;-86
2022/10/08 00:19:02;;;;;;;30.23;6.30;;;;;;;19.55;nan;101255.34;6077987;23;20529;-87
2022/10/08 00:21:37;;;;;;;31.60;7.10;;;;;;;19.52;nan;101241.13;6123895;23;20410;-86
2022/10/08 00:24:06;;;;;;;27.17;6.30;;;;;;;19.55;nan;101243.41;6052304;23;20749;-86
2022/10/08 00:26:35;;;;;;;34.53;6.90;;;;;;;19.54;nan;101233.41;6076168;23;20533;-87
2022/10/08 00:29:09;;;;;;;35.50;6.77;;;;;;;19.57;nan;101233.78;6077810;23;20742;-87
2022/10/08 00:31:39;;;;;;;33.47;6.60;;;;;;;19.57;nan;101238.47;6052411;23;20496;-87
2022/10/08 00:34:10;;;;;;;31.50;7.00;;;;;;;19.56;nan;101225.69;6095820;23;20521;-87
2022/10/08 00:36:38;;;;;;;30.13;6.03;;;;;;;19.56;nan;101222.94;6098918;23;20410;-87
2022/10/08 00:39:12;;;;;;;28.57;5.47;;;;;;;19.65;nan;101216.75;6075436;23;20554;-87
2022/10/08 00:41:40;;;;;;;33.67;6.20;;;;;;;19.61;nan;101210.03;6146690;23;20478;-87
2022/10/08 00:44:45;;;;;;;36.03;5.20;;;;;;;19.67;nan;101214.59;6164256;23;20411;-87
2022/10/08 00:47:38;;;;;;;23.00;5.40;;;;;;;19.69;nan;101210.72;6215206;23;20407;-87
2022/10/08 00:50:26;;;;;;;29.43;4.80;;;;;;;19.72;nan;101202.78;6189160;23;20859;-87
2022/10/08 00:53:03;;;;;;;39.47;5.37;;;;;;;19.69;nan;101192.16;6215299;23;20522;-86
2022/10/08 00:55:31;;;;;;;27.00;5.27;;;;;;;19.80;nan;101191.31;6141293;23;20478;-87
2022/10/08 00:58:04;;;;;;;29.67;5.43;;;;;;;19.86;nan;101193.09;6164608;23;20796;-87
2022/10/08 01:00:32;;;;;;;26.03;4.90;;;;;;;19.84;nan;101178.63;6164386;23;20890;-88
2022/10/08 01:02:59;;;;;;;27.53;5.10;;;;;;;19.91;nan;101190.44;6214950;23;20403;-86
2022/10/08 01:05:38;;;;;;;33.90;5.63;;;;;;;19.91;nan;101190.44;6189256;23;20542;-87
2022/10/08 01:08:37;;;;;;;30.83;5.40;;;;;;;19.92;nan;101186.56;6142886;23;20411;-87
2022/10/08 01:11:23;;;;;;;34.17;6.63;;;;;;;19.88;nan;101184.53;6168316;23;20806;-87
2022/10/08 01:14:40;;;;;;;31.20;5.37;;;;;;;19.79;nan;101191.56;6215348;23;20818;-88
2022/10/08 01:17:23;;;;;;;29.03;6.03;;;;;;;19.70;nan;101196.63;6139007;23;20411;-87
2022/10/08 01:19:56;;;;;;;30.60;5.00;;;;;;;19.61;nan;101190.63;6215064;23;20535;-87
2022/10/08 01:22:44;;;;;;;40.40;6.17;;;;;;;19.53;nan;101187.34;6188960;23;20477;-87
2022/10/08 01:25:32;;;;;;;36.57;6.07;;;;;;;19.46;nan;101192.13;6152758;23;20409;-87
2022/10/08 01:28:10;;;;;;;33.40;5.47;;;;;;;19.36;nan;101190.00;6152933;23;20488;-87
2022/10/08 01:30:42;;;;;;;24.40;5.77;;;;;;;19.31;nan;101198.19;6105596;23;20401;-87
2022/10/08 01:33:50;;;;;;;26.60;5.13;;;;;;;19.23;nan;101199.41;6114202;23;20429;-87
2022/10/08 01:36:18;;;;;;;23.17;6.30;;;;;;;19.15;nan;101202.50;6128293;23;20793;-86
2022/10/08 01:38:57;;;;;;;34.53;6.60;;;;;;;19.09;nan;101197.06;6080912;23;20476;-87
2022/10/08 01:41:25;;;;;;;33.47;5.27;;;;;;;19.04;nan;101189.50;6106850;23;20799;-87
2022/10/08 01:44:02;;;;;;;22.50;5.50;;;;;;;18.98;nan;101193.22;6082463;23;21078;-86
2022/10/08 01:46:30;;;;;;;25.93;5.40;;;;;;;18.85;nan;101180.44;6083898;23;20547;-87
2022/10/08 01:49:06;;;;;;;24.23;5.10;;;;;;;18.82;nan;101180.06;6115271;23;20469;-86
2022/10/08 01:51:35;;;;;;;25.27;5.40;;;;;;;18.79;nan;101191.59;6166405;23;20470;-87
2022/10/08 01:54:05;;;;;;;38.30;5.87;;;;;;;18.69;nan;101181.09;6166144;23;20478;-87
2022/10/08 01:56:33;;;;;;;17.70;5.20;;;;;;;18.65;nan;101185.44;6165989;23;20410;-88
2022/10/08 01:59:05;;;;;;;32.70;6.80;;;;;;;18.62;nan;101180.38;6165836;23;20471;-87
2022/10/08 02:02:02;;;;;;;23.20;4.60;;;;;;;18.60;nan;101182.53;6166041;23;20487;-88
2022/10/08 02:04:33;;;;;;;30.30;5.60;;;;;;;18.56;nan;101171.03;6206140;23;20408;-87
2022/10/08 02:07:13;;;;;;;23.40;5.70;;;;;;;18.52;nan;101182.81;6190744;23;20479;-86
2022/10/08 02:09:45;;;;;;;21.63;5.20;;;;;;;18.47;nan;101177.97;6166171;23;20407;-87
2022/10/08 02:12:13;;;;;;;31.60;5.60;;;;;;;18.42;nan;101174.25;6190066;23;20407;-87
2022/10/08 02:14:44;;;;;;;32.13;5.17;;;;;;;18.37;nan;101172.19;6190397;23;20950;-86
2022/10/08 02:17:17;;;;;;;25.33;5.10;;;;;;;18.38;nan;101181.31;6166044;23;20475;-86
2022/10/08 02:19:55;;;;;;;32.40;5.67;;;;;;;18.33;nan;101190.31;6189409;23;20447;-87
2022/10/08 02:22:44;;;;;;;28.27;5.20;;;;;;;18.33;nan;101183.94;6166237;23;20961;-86
2022/10/08 02:25:33;;;;;;;27.70;5.60;;;;;;;18.36;nan;101175.19;6166317;23;20404;-86
2022/10/08 02:28:06;;;;;;;35.23;5.80;;;;;;;18.45;nan;101179.31;6166631;23;20737;-87
2022/10/08 02:30:46;;;;;;;33.33;6.40;;;;;;;18.46;nan;101173.53;6165401;23;20411;-86
2022/10/08 02:33:16;;;;;;;34.63;7.77;;;;;;;18.52;nan;101168.97;6181044;23;20497;-87
2022/10/08 02:35:51;;;;;;;47.60;9.90;;;;;;;18.62;nan;101174.81;6195977;23;20399;-87
2022/10/08 02:38:52;;;;;;;36.70;7.73;;;;;;;18.70;nan;101187.47;6220930;23;20498;-88
2022/10/08 02:41:24;;;;;;;43.27;7.13;;;;;;;18.72;nan;101180.63;6220744;23;20738;-87
2022/10/08 02:43:52;;;;;;;43.30;8.30;;;;;;;18.75;nan;101168.22;6219906;23;20407;-88
2022/10/08 02:46:29;;;;;;;32.97;7.90;;;;;;;18.84;nan;101177.91;6220606;23;20477;-87
2022/10/08 02:49:05;;;;;;;42.20;7.97;;;;;;;18.89;nan;101180.78;6219515;23;20963;-86
2022/10/08 02:51:39;;;;;;;36.63;8.03;;;;;;;18.91;nan;101178.59;6221148;23;20395;-87
2022/10/08 02:54:08;;;;;;;67.57;9.50;;;;;;;18.92;nan;101170.06;6195605;23;20478;-87
2022/10/08 02:56:45;;;;;;;45.00;10.27;;;;;;;18.91;nan;101178.59;6195526;23;20934;-86
2022/10/08 02:59:13;;;;;;;52.13;8.87;;;;;;;18.91;nan;101182.22;6195578;23;20442;-87
2022/10/08 03:01:54;;;;;;;43.73;9.10;;;;;;;18.87;nan;101185.69;6195597;23;20482;-86
2022/10/08 03:04:51;;;;;;;35.13;8.40;;;;;;;18.84;nan;101189.81;6197159;23;20403;-87
2022/10/08 03:07:21;;;;;;;50.83;8.47;;;;;;;18.81;nan;101193.06;6195247;23;20410;-86
2022/10/08 03:09:50;;;;;;;55.87;9.37;;;;;;;18.80;nan;101201.59;6196731;23;20502;-87
2022/10/08 03:12:18;;;;;;;46.40;9.43;;;;;;;18.76;nan;101197.59;6220494;23;20477;-87
2022/10/08 03:14:47;;;;;;;52.67;9.50;;;;;;;18.74;nan;101205.31;6195315;23;20486;-88
2022/10/08 03:17:40;;;;;;;39.43;8.83;;;;;;;18.79;nan;101208.22;6195303;23;20723;-87
2022/10/08 03:20:08;;;;;;;39.07;8.63;;;;;;;18.77;nan;101213.16;6238787;23;20945;-88
2022/10/08 03:22:36;;;;;;;51.87;9.27;;;;;;;18.77;nan;101199.31;6195611;23;20414;-86
2022/10/08 03:25:04;;;;;;;45.23;9.40;;;;;;;18.77;nan;101199.31;6171066;23;20395;-87
2022/10/08 03:27:34;;;;;;;43.40;8.00;;;;;;;18.75;nan;101201.47;6170840;23;20482;-87
2022/10/08 03:30:02;;;;;;;40.13;8.10;;;;;;;18.62;nan;101185.91;6246244;23;20398;-87
2022/10/08 03:32:30;;;;;;;53.17;8.77;;;;;;;18.68;nan;101196.00;6164357;23;20730;-87
2022/10/08 03:34:59;;;;;;;38.53;7.30;;;;;;;18.63;nan;101202.28;6165108;23;20491;-87
2022/10/08 03:37:26;;;;;;;40.07;7.90;;;;;;;18.58;nan;101202.09;6177387;23;20482;-87
2022/10/08 03:39:54;;;;;;;27.77;6.80;;;;;;;18.53;nan;101196.41;6164923;23;20518;-87
2022/10/08 03:42:21;;;;;;;49.63;9.57;;;;;;;18.48;nan;101195.44;6189414;23;20515;-86
2022/10/08 03:44:49;;;;;;;38.37;7.30;;;;;;;18.41;nan;101198.31;6190178;23;20957;-86
2022/10/08 03:47:17;;;;;;;33.80;6.93;;;;;;;18.41;nan;101212.16;6165199;23;20554;-88
2022/10/08 03:49:45;;;;;;;36.63;7.20;;;;;;;18.34;nan;101199.47;6165052;23;20522;-86
2022/10/08 03:52:14;;;;;;;44.67;8.40;;;;;;;18.32;nan;101204.38;6189846;23;20482;-87
2022/10/08 03:54:43;;;;;;;44.93;6.57;;;;;;;18.24;nan;101195.34;6165525;23;20833;-87
2022/10/08 03:57:10;;;;;;;37.83;8.00;;;;;;;18.24;nan;101188.97;6215300;23;20495;-87
2022/10/08 03:59:38;;;;;;;41.73;7.47;;;;;;;18.18;nan;101187.97;6164920;23;20519;-87
2022/10/08 04:02:05;;;;;;;37.00;7.23;;;;;;;18.16;nan;101197.59;6164693;23;20475;-86
2022/10/08 04:04:33;;;;;;;33.23;6.70;;;;;;;18.09;nan;101191.31;6140124;23;20408;-88
2022/10/08 04:07:01;;;;;;;43.70;7.13;;;;;;;17.93;nan;101177.00;6189215;23;20487;-87
2022/10/08 04:09:29;;;;;;;32.73;8.00;;;;;;;17.90;nan;101183.00;6165173;23;20735;-86
2022/10/08 04:11:57;;;;;;;39.27;8.33;;;;;;;17.86;nan;101192.84;6165311;23;20977;-86
2022/10/08 04:14:25;;;;;;;31.50;6.10;;;;;;;17.81;nan;101183.56;6215561;23;20804;-86
2022/10/08 04:16:54;;;;;;;33.83;7.33;;;;;;;17.83;nan;101190.56;6189280;23;20913;-87
2022/10/08 04:19:22;;;;;;;36.70;7.53;;;;;;;17.81;nan;101197.38;6213784;23;20400;-87
2022/10/08 04:21:49;;;;;;;30.53;7.43;;;;;;;17.78;nan;101195.06;6189473;23;20526;-86
2022/10/08 04:24:17;;;;;;;31.90;6.53;;;;;;;17.82;nan;101191.63;6165005;23;20974;-86
2022/10/08 04:26:45;;;;;;;27.90;6.00;;;;;;;17.82;nan;101188.84;6188838;23;20404;-87
2022/10/08 04:29:12;;;;;;;29.33;7.47;;;;;;;17.82;nan;101188.00;6189164;23;20479;-87
2022/10/08 04:31:40;;;;;;;18.13;5.33;;;;;;;17.85;nan;101193.94;6140341;23;20514;-88
2022/10/08 04:34:10;;;;;;;23.40;6.30;;;;;;;17.83;nan;101187.78;6165151;23;20511;-87
2022/10/08 04:36:38;;;;;;;32.47;6.23;;;;;;;17.82;nan;101190.78;6164732;23;20526;-87
2022/10/08 04:39:06;;;;;;;31.20;6.27;;;;;;;17.85;nan;101195.84;6215729;23;20514;-87
2022/10/08 04:41:33;;;;;;;32.37;6.17;;;;;;;17.83;nan;101200.78;6140067;23;20573;-87
2022/10/08 04:44:01;;;;;;;30.87;7.17;;;;;;;17.85;nan;101202.22;6164947;23;20595;-87
2022/10/08 04:46:31;;;;;;;23.77;6.50;;;;;;;17.80;nan;101192.94;6213511;23;20490;-87
2022/10/08 04:48:59;;;;;;;36.20;6.87;;;;;;;17.83;nan;101198.84;6189691;23;20408;-87
2022/10/08 04:51:27;;;;;;;27.60;6.13;;;;;;;17.86;nan;101214.97;6165140;23;20966;-87
2022/10/08 04:53:55;;;;;;;31.20;7.20;;;;;;;17.85;nan;101207.75;6164751;23;20482;-87
2022/10/08 04:56:27;;;;;;;31.53;6.50;;;;;;;17.88;nan;101217.53;6176882;23;20747;-88
2022/10/08 04:58:54;;;;;;;28.70;5.53;;;;;;;17.88;nan;101220.28;6164662;23;20407;-87
2022/10/08 05:01:22;;;;;;;25.20;5.03;;;;;;;17.86;nan;101216.91;6188890;23;20448;-88
2022/10/08 05:03:51;;;;;;;28.87;5.70;;;;;;;17.88;nan;101207.31;6188775;23;20411;-87
2022/10/08 05:06:24;;;;;;;29.47;6.80;;;;;;;17.90;nan;101218.09;6189351;23;20527;-88
2022/10/08 05:08:53;;;;;;;27.17;6.80;;;;;;;17.95;nan;101215.50;6189187;23;20475;-88
2022/10/08 05:11:24;;;;;;;27.90;5.20;;;;;;;17.97;nan;101218.88;6189130;23;20538;-87
2022/10/08 05:13:52;;;;;;;24.50;5.60;;;;;;;17.94;nan;101206.34;6164840;23;20400;-88
2022/10/08 05:16:20;;;;;;;23.83;5.20;;;;;;;17.96;nan;101211.66;6165337;23;20407;-87
2022/10/08 05:18:50;;;;;;;29.20;6.57;;;;;;;17.99;nan;101210.34;6166344;23;20486;-86
2022/10/08 05:21:23;;;;;;;24.77;5.50;;;;;;;17.91;nan;101203.19;6166782;23;20522;-87
2022/10/08 05:23:59;;;;;;;29.47;5.20;;;;;;;17.87;nan;101213.91;6191101;23;20468;-86
2022/10/08 05:26:28;;;;;;;33.83;5.33;;;;;;;17.88;nan;101217.53;6166367;23;20483;-87
2022/10/08 05:29:17;;;;;;;25.03;5.43;;;;;;;17.86;nan;101214.13;6175193;23;20473;-87
2022/10/08 05:31:45;;;;;;;28.13;6.40;;;;;;;17.82;nan;101210.97;6190950;23;20479;-87
2022/10/08 05:34:13;;;;;;;21.67;5.63;;;;;;;17.91;nan;101219.78;6190168;23;21077;-87
2022/10/08 05:36:41;;;;;;;27.47;5.80;;;;;;;17.87;nan;101211.16;6166731;23;20478;-86
2022/10/08 05:39:09;;;;;;;30.77;5.20;;;;;;;17.87;nan;101208.38;6217039;23;20491;-86
2022/10/08 05:41:37;;;;;;;39.07;6.70;;;;;;;17.86;nan;101223.28;6190728;23;20526;-87
2022/10/08 05:44:05;;;;;;;40.57;6.03;;;;;;;17.83;nan;101207.13;6166545;23;20470;-87
2022/10/08 05:46:34;;;;;;;22.50;5.60;;;;;;;17.87;nan;101227.75;6216682;23;20412;-87
2022/10/08 05:49:03;;;;;;;27.67;5.33;;;;;;;17.86;nan;101219.66;6166719;23;20482;-87
2022/10/08 05:51:32;;;;;;;30.43;4.70;;;;;;;17.88;nan;101229.44;6190715;23;20482;-87
2022/10/08 05:54:00;;;;;;;20.37;5.17;;;;;;;17.88;nan;101229.44;6190898;23;20514;-87
2022/10/08 05:56:27;;;;;;;24.33;5.47;;;;;;;17.83;nan;101231.19;6191033;23;20487;-87
2022/10/08 05:58:55;;;;;;;20.23;5.27;;;;;;;17.79;nan;101230.78;6142301;23;20483;-87
2022/10/08 06:01:32;;;;;;;28.30;5.17;;;;;;;17.71;nan;101228.31;6190311;23;20514;-87
2022/10/08 06:04:02;;;;;;;24.37;6.43;;;;;;;17.71;nan;101233.84;6141852;23;20886;-87
2022/10/08 06:06:38;;;;;;;22.93;6.50;;;;;;;17.64;nan;101227.56;6191698;23;20557;-87
2022/10/08 06:09:06;;;;;;;27.57;5.00;;;;;;;17.63;nan;101219.47;6166178;23;20479;-87
2022/10/08 06:11:35;;;;;;;20.33;5.90;;;;;;;17.60;nan;101226.28;6190809;23;20990;-88
2022/10/08 06:14:05;;;;;;;22.47;4.90;;;;;;;17.53;nan;101226.34;6191148;23;20404;-87
2022/10/08 06:16:34;;;;;;;22.03;6.07;;;;;;;17.47;nan;101216.22;6165866;23;20415;-87
2022/10/08 06:19:02;;;;;;;26.70;5.43;;;;;;;17.41;nan;101224.56;6190211;23;20408;-87
2022/10/08 06:21:30;;;;;;;27.60;5.53;;;;;;;17.36;nan;101213.34;6190364;23;20527;-87
2022/10/08 06:23:59;;;;;;;23.30;5.57;;;;;;;17.35;nan;101228.22;6190741;23;20474;-86
2022/10/08 06:26:29;;;;;;;22.30;5.27;;;;;;;17.28;nan;101217.25;6190220;23;20873;-89
2022/10/08 06:29:01;;;;;;;21.13;5.30;;;;;;;17.23;nan;101214.31;6191575;23;20485;-87
2022/10/08 06:31:30;;;;;;;24.87;5.50;;;;;;;17.27;nan;101233.00;6165824;23;20434;-87
2022/10/08 06:33:58;;;;;;;25.13;5.00;;;;;;;17.24;nan;101236.19;6214933;23;20557;-87
2022/10/08 06:36:27;;;;;;;24.30;5.90;;;;;;;17.14;nan;101233.06;6196015;23;20465;-87
2022/10/08 06:38:56;;;;;;;30.73;5.90;;;;;;;17.09;nan;101232.94;6196253;23;20398;-87
2022/10/08 06:41:24;;;;;;;23.90;5.27;;;;;;;17.04;nan;101238.28;6170962;23;20492;-87
2022/10/08 06:43:54;;;;;;;28.33;4.60;;;;;;;17.02;nan;101245.09;6170968;23;20403;-88
2022/10/08 06:46:22;;;;;;;34.60;5.03;;;;;;;16.96;nan;101241.28;6196163;23;20711;-87
2022/10/08 06:48:50;;;;;;;25.83;5.50;;;;;;;16.93;nan;101233.50;6219544;23;20468;-86
2022/10/08 06:51:18;;;;;;;36.87;5.97;;;;;;;16.96;nan;101246.81;6220735;23;20920;-87
2022/10/08 06:53:51;;;;;;;23.70;5.37;;;;;;;16.92;nan;101251.13;6195945;23;20916;-87
2022/10/08 06:56:19;;;;;;;30.67;6.53;;;;;;;16.85;nan;101230.97;6171187;23;20418;-87
2022/10/08 06:58:46;;;;;;;36.60;6.60;;;;;;;16.89;nan;101246.03;6170582;23;20426;-87
2022/10/08 07:01:16;;;;;;;38.57;6.87;;;;;;;16.88;nan;101249.88;6170170;23;20525;-87
2022/10/08 07:03:50;;;;;;;49.40;7.10;;;;;;;16.89;nan;101255.16;6171237;23;20964;-86
2022/10/08 07:06:19;;;;;;;31.13;5.67;;;;;;;16.87;nan;101259.22;6245294;23;20470;-87
2022/10/08 07:08:46;;;;;;;38.03;7.10;;;;;;;16.88;nan;101269.19;6170968;23;20848;-86
2022/10/08 07:11:16;;;;;;;27.50;6.27;;;;;;;16.91;nan;101269.59;6170529;23;20481;-87
2022/10/08 07:13:45;;;;;;;32.13;5.93;;;;;;;16.91;nan;101254.94;6194837;23;20406;-87
2022/10/08 07:16:17;;;;;;;25.97;5.37;;;;;;;16.92;nan;101267.69;6220847;23;20453;-86
2022/10/08 07:18:48;;;;;;;34.10;6.53;;;;;;;16.95;nan;101256.16;6197044;23;20488;-87
2022/10/08 07:21:17;;;;;;;33.10;7.00;;;;;;;16.96;nan;101266.16;6195168;23;20752;-87
2022/10/08 07:23:45;;;;;;;36.87;8.10;;;;;;;17.02;nan;101269.94;6219986;23;20773;-86
2022/10/08 07:26:14;;;;;;;40.70;8.10;;;;;;;16.96;nan;101257.88;6170537;23;20481;-87
2022/10/08 07:28:48;;;;;;;33.80;6.40;;;;;;;17.07;nan;101265.44;6194971;23;20490;-87
2022/10/08 07:31:18;;;;;;;36.90;6.00;;;;;;;17.13;nan;101272.81;6246580;23;20480;-87
2022/10/08 07:33:46;;;;;;;23.67;5.73;;;;;;;17.18;nan;101273.00;6173097;23;20435;-86
2022/10/08 07:36:15;;;;;;;43.00;6.60;;;;;;;17.22;nan;101271.47;6189645;23;20408;-90
2022/10/08 07:38:45;;;;;;;37.97;6.60;;;;;;;17.29;nan;101267.84;6165426;23;20415;-91
2022/10/08 07:41:18;;;;;;;36.67;7.07;;;;;;;17.30;nan;101269.53;6190320;23;20442;-90
2022/10/08 07:43:51;;;;;;;35.30;6.13;;;;;;;17.46;nan;101291.91;6166496;23;20479;-89
2022/10/08 07:46:23;;;;;;;25.47;6.17;;;;;;;17.51;nan;101283.75;6165784;23;20490;-88
2022/10/08 07:48:52;;;;;;;33.00;6.87;;;;;;;17.55;nan;101278.63;6189559;23;20471;-89
2022/10/08 07:51:21;;;;;;;33.60;6.13;;;;;;;17.63;nan;101285.81;6165664;23;20905;-88
2022/10/08 07:53:56;;;;;;;30.90;5.93;;;;;;;17.70;nan;101293.00;6140963;23;20903;-88
2022/10/08 07:56:30;;;;;;;24.87;6.03;;;;;;;17.80;nan;101287.78;6143974;23;20404;-87
2022/10/08 07:59:00;;;;;;;19.63;5.00;;;;;;;17.85;nan;101282.44;6164960;23;20479;-88
2022/10/08 08:01:29;;;;;;;23.03;5.43;;;;;;;17.97;nan;101295.47;6215011;23;20493;-87
2022/10/08 08:04:03;;;;;;;32.10;5.73;;;;;;;18.07;nan;101298.59;6164417;23;20950;-89
2022/10/08 08:06:39;;;;;;;29.87;5.70;;;;;;;18.16;nan;101300.81;6188010;23;20906;-89
2022/10/08 08:09:07;;;;;;;24.67;5.33;;;;;;;18.18;nan;101290.34;6164477;23;20407;-89
2022/10/08 08:11:35;;;;;;;23.97;5.83;;;;;;;18.32;nan;101302.09;6213165;23;20465;-89
2022/10/08 08:14:04;;;;;;;23.83;5.67;;;;;;;18.39;nan;101311.19;6140815;23;20478;-89
2022/10/08 08:16:31;;;;;;;19.27;5.30;;;;;;;18.47;nan;101304.50;6165626;23;20789;-89
2022/10/08 08:19:00;;;;;;;35.73;6.10;;;;;;;18.51;nan;101295.47;6214322;23;20466;-88
2022/10/08 08:21:29;;;;;;;20.67;6.20;;;;;;;18.65;nan;101300.88;6139951;23;20462;-90
2022/10/08 08:23:57;;;;;;;36.07;5.70;;;;;;;18.75;nan;101298.38;6165908;23;20403;-88
2022/10/08 08:26:34;;;;;;;31.43;5.50;;;;;;;18.84;nan;101299.75;6190109;23;20475;-91
2022/10/08 08:29:20;;;;;;;27.97;4.90;;;;;;;18.98;nan;101298.47;6142435;23;20495;-93
2022/10/08 08:31:48;;;;;;;24.77;5.70;;;;;;;19.08;nan;101295.13;6141771;23;20402;-90
2022/10/08 08:34:18;;;;;;;21.57;4.40;;;;;;;19.22;nan;101302.19;6192909;23;20832;-88
2022/10/08 08:36:48;;;;;;;21.20;5.27;;;;;;;19.36;nan;101305.56;6196030;23;20521;-94
2022/10/08 08:39:20;;;;;;;27.73;6.67;;;;;;;19.41;nan;101302.94;6195911;23;20545;-88
2022/10/08 08:42:02;;;;;;;24.27;5.90;;;;;;;19.56;nan;101301.41;6194999;23;20550;-88
2022/10/08 08:44:34;;;;;;;26.30;5.20;;;;;;;19.69;nan;101305.88;6194947;23;20533;-88
2022/10/08 08:47:33;;;;;;;24.97;5.20;;;;;;;19.85;nan;101313.47;6245758;23;20489;-88
2022/10/08 08:50:50;;;;;;;35.57;5.10;;;;;;;20.02;nan;101302.47;6221300;23;20912;-88
2022/10/08 08:53:17;;;;;;;22.27;5.27;;;;;;;20.17;nan;101299.22;6221358;23;20916;-88
2022/10/08 08:55:53;;;;;;;28.23;5.37;;;;;;;20.35;nan;101313.81;6196957;23;20485;-88
2022/10/08 08:58:57;;;;;;;21.87;4.20;;;;;;;20.60;nan;101319.06;6196592;23;20417;-88
2022/10/08 09:01:36;;;;;;;38.63;5.13;;;;;;;20.78;nan;101317.22;6125443;23;20454;-88
2022/10/08 09:04:24;;;;;;;25.10;5.17;;;;;;;20.95;nan;101312.56;6078147;23;20417;-88
2022/10/08 09:06:52;;;;;;;38.07;4.70;;;;;;;21.11;nan;101308.13;6080617;23;20429;-88
2022/10/08 09:09:34;;;;;;;28.83;4.60;;;;;;;21.27;nan;101310.09;6101521;23;21048;-88
2022/10/08 09:12:34;;;;;;;27.80;5.57;;;;;;;21.49;nan;101305.50;6078131;23;20710;-87
2022/10/08 09:15:03;;;;;;;29.60;4.50;;;;;;;21.60;nan;101310.13;6125364;23;20497;-88
2022/10/08 09:17:32;;;;;;;26.83;4.53;;;;;;;21.71;nan;101312.00;6101248;23;20411;-87
2022/10/08 09:20:00;;;;;;;25.67;4.67;;;;;;;21.84;nan;101308.00;6077494;23;20489;-87
2022/10/08 09:22:29;;;;;;;25.33;4.47;;;;;;;21.99;nan;101310.16;6077186;23;20534;-87
2022/10/08 09:24:59;;;;;;;24.33;4.67;;;;;;;22.07;nan;101308.94;6078049;23;20410;-88
2022/10/08 09:28:05;;;;;;;25.13;3.83;;;;;;;22.26;nan;101313.09;6077788;23;20571;-88
2022/10/08 09:30:43;;;;;;;26.53;4.30;;;;;;;22.35;nan;101306.81;6014967;23;20491;-88
2022/10/08 09:33:17;;;;;;;30.33;5.77;;;;;;;22.48;nan;101313.97;5986993;23;20441;-88
2022/10/08 09:35:45;;;;;;;28.40;6.30;;;;;;;22.60;nan;101306.31;6010055;23;20446;-88
2022/10/08 09:38:21;;;;;;;19.33;3.60;;;;;;;22.71;nan;101308.09;6098735;23;20496;-88
2022/10/08 09:40:59;;;;;;;21.23;4.80;;;;;;;22.80;nan;101294.59;6077436;23;20412;-88
2022/10/08 09:43:28;;;;;;;20.67;3.73;;;;;;;22.89;nan;101301.41;6101150;23;20498;-88
2022/10/08 09:45:57;;;;;;;21.60;4.00;;;;;;;22.96;nan;101279.69;6124851;23;20537;-88
2022/10/08 09:48:28;;;;;;;23.50;4.10;;;;;;;23.15;nan;101296.91;6124785;23;20422;-88
2022/10/08 09:51:25;;;;;;;25.90;4.20;;;;;;;23.32;nan;101300.41;6095629;23;20547;-88
2022/10/08 09:53:57;;;;;;;23.87;4.63;;;;;;;23.42;nan;101294.94;6100839;23;20406;-87
2022/10/08 09:56:27;;;;;;;25.57;3.67;;;;;;;23.56;nan;101300.09;6100460;23;20402;-88
2022/10/08 09:59:02;;;;;;;17.03;3.80;;;;;;;23.66;nan;101291.81;6101225;23;20894;-87
2022/10/08 10:01:30;;;;;;;32.20;5.17;;;;;;;23.74;nan;101291.31;6139437;23;21020;-88
2022/10/08 10:04:01;;;;;;;28.97;5.13;;;;;;;23.86;nan;101288.34;6190899;23;20526;-88
2022/10/08 10:06:36;;;;;;;31.07;4.67;;;;;;;23.92;nan;101290.88;6191485;23;20462;-88
2022/10/08 10:09:25;;;;;;;40.30;3.87;;;;;;;24.06;nan;101294.84;6191457;23;20462;-88
2022/10/08 10:12:04;;;;;;;23.90;4.13;;;;;;;24.18;nan;101296.63;6193797;23;20408;-88
2022/10/08 10:15:01;;;;;;;39.40;4.20;;;;;;;24.39;nan;101292.84;6168540;23;20749;-88
2022/10/08 10:17:44;;;;;;;32.70;4.20;;;;;;;24.55;nan;101290.97;6189193;23;20459;-88
2022/10/08 10:20:35;;;;;;;24.33;4.40;;;;;;;24.71;nan;101285.13;6167618;23;20407;-87
2022/10/08 10:23:40;;;;;;;21.50;4.00;;;;;;;24.87;nan;101293.56;6165380;23;20522;-89
2022/10/08 10:26:14;;;;;;;20.60;4.00;;;;;;;24.98;nan;101281.34;6166251;23;20407;-88
2022/10/08 10:29:19;;;;;;;29.20;3.90;;;;;;;25.18;nan;101286.97;6191398;23;20925;-88
2022/10/08 10:32:08;;;;;;;21.13;4.03;;;;;;;25.31;nan;101288.38;6130215;23;20946;-88
2022/10/08 10:34:38;;;;;;;26.40;4.37;;;;;;;25.41;nan;101277.16;6129811;23;20496;-88
2022/10/08 10:37:16;;;;;;;24.30;4.20;;;;;;;25.53;nan;101274.94;6129849;23;20976;-88
2022/10/08 10:39:53;;;;;;;32.63;4.27;;;;;;;25.67;nan;101272.44;6129626;23;20775;-88
2022/10/08 10:42:39;;;;;;;33.67;3.87;;;;;;;25.83;nan;101271.28;6129970;23;20445;-88
2022/10/08 10:45:14;;;;;;;33.77;4.40;;;;;;;26.02;nan;101266.75;6032215;23;20420;-88
2022/10/08 10:47:42;;;;;;;27.97;4.57;;;;;;;26.14;nan;101264.50;6009209;23;20454;-88
2022/10/08 10:50:12;;;;;;;21.80;3.80;;;;;;;26.28;nan;101258.28;5986331;23;20493;-89
2022/10/08 10:52:43;;;;;;;33.37;4.13;;;;;;;26.38;nan;101263.88;5986628;23;20501;-88
2022/10/08 10:55:28;;;;;;;32.70;3.87;;;;;;;26.40;nan;101261.63;6008842;23;20482;-88
2022/10/08 10:58:20;;;;;;;21.93;3.37;;;;;;;26.45;nan;101264.41;6010115;23;20988;-88
2022/10/08 11:00:56;;;;;;;40.77;4.30;;;;;;;26.45;nan;101264.41;6008269;23;20466;-89
2022/10/08 11:03:48;;;;;;;25.27;3.30;;;;;;;26.45;nan;101268.06;6008766;23;20460;-87
2022/10/08 11:06:38;;;;;;;19.40;2.73;;;;;;;26.43;nan;101261.03;6008317;23;20422;-88
2022/10/08 11:09:15;;;;;;;40.27;3.80;;;;;;;26.45;nan;101270.00;6077679;23;20414;-89
2022/10/08 11:11:51;;;;;;;39.00;3.57;;;;;;;26.41;nan;101268.91;6189537;23;20544;-89
2022/10/08 11:14:47;;;;;;;28.23;4.60;;;;;;;26.31;nan;101267.00;6189681;23;20399;-88
2022/10/08 11:17:39;;;;;;;25.00;4.63;;;;;;;26.11;nan;101267.03;6167782;23;20910;-89
2022/10/08 11:20:13;;;;;;;23.60;3.30;;;;;;;25.91;nan;101272.69;6215437;23;20910;-89
2022/10/08 11:23:41;;;;;;;26.70;4.00;;;;;;;25.74;nan;101281.41;6190370;23;20574;-90
2022/10/08 11:26:51;;;;;;;31.03;4.40;;;;;;;25.76;nan;101262.34;6215891;23;20492;-90
2022/10/08 11:29:41;;;;;;;24.67;3.80;;;;;;;26.07;nan;101266.75;6139762;23;20412;-89
2022/10/08 11:32:13;;;;;;;36.43;3.63;;;;;;;26.34;nan;101272.03;6170278;23;20488;-89
2022/10/08 11:34:45;;;;;;;39.50;4.00;;;;;;;26.53;nan;101263.81;6219508;23;20403;-90
2022/10/08 11:37:31;;;;;;;21.27;4.57;;;;;;;26.74;nan;101265.41;6220436;23;20490;-89
2022/10/08 11:40:06;;;;;;;22.20;3.50;;;;;;;26.89;nan;101270.06;6196416;23;20490;-90
2022/10/08 11:42:44;;;;;;;30.37;3.97;;;;;;;26.96;nan;101259.38;6195811;23;20509;-90
2022/10/08 11:45:23;;;;;;;26.60;3.70;;;;;;;27.13;nan;101261.81;6197499;23;20473;-89
2022/10/08 11:47:53;;;;;;;38.40;4.37;;;;;;;27.30;nan;101267.00;6219511;23;20967;-89
2022/10/08 11:50:34;;;;;;;22.50;3.80;;;;;;;27.46;nan;101257.31;6171806;23;20406;-90
2022/10/08 11:53:14;;;;;;;33.53;4.67;;;;;;;27.63;nan;101273.75;6197102;23;20493;-90
2022/10/08 11:55:52;;;;;;;33.10;4.83;;;;;;;27.69;nan;101247.31;6246844;23;20410;-90
2022/10/08 11:58:29;;;;;;;24.47;5.63;;;;;;;27.83;nan;101251.94;6221038;23;20409;-91
2022/10/08 12:01:08;;;;;;;23.10;3.63;;;;;;;27.91;nan;101258.84;6221171;23;21011;-90
2022/10/08 12:03:41;;;;;;;26.67;6.30;;;;;;;28.01;nan;101253.13;6170889;23;20446;-89
2022/10/08 12:06:25;;;;;;;17.20;3.77;;;;;;;28.20;nan;101261.66;6170741;23;20425;-90
2022/10/08 12:09:00;;;;;;;27.37;4.00;;;;;;;28.24;nan;101256.28;6220379;23;20391;-90